Time;durP1;ratioP1;P1;durP2;ratioP2;P2;SDS_P1;SDS_P2;PMS_P1;PMS_P2;Temp;Humidity;BMP_temperature;BMP_pressure;BME280_temperature;BME280_humidity;BME280_pressure;Samples;Min_cycle;Max_cycle;Signal;HPM_P1;HPM_P2
2022/06/09 00:00:36;;;;;;;2.45;0.60;;;18.60;83.40;;;;;;5036025;28;20425;-75
2022/06/09 00:03:08;;;;;;;2.20;0.73;;;19.00;82.80;;;;;;5035101;28;20493;-74
2022/06/09 00:05:37;;;;;;;1.90;0.65;;;19.00;82.40;;;;;;5031618;28;20120;-75
2022/06/09 00:08:05;;;;;;;3.35;0.60;;;19.50;81.30;;;;;;5037146;28;20033;-73
2022/06/09 00:10:39;;;;;;;2.50;0.60;;;19.60;79.20;;;;;;5035702;28;20226;-73
2022/06/09 00:13:07;;;;;;;0.90;0.30;;;19.50;79.20;;;;;;5033773;28;20047;-74
2022/06/09 00:15:35;;;;;;;1.42;0.50;;;19.70;80.40;;;;;;5038988;28;20107;-73
2022/06/09 00:18:02;;;;;;;1.40;0.50;;;20.10;79.30;;;;;;5034533;28;20021;-73
2022/06/09 00:20:29;;;;;;;0.73;0.30;;;20.50;78.70;;;;;;5034229;28;20032;-74
2022/06/09 00:22:57;;;;;;;2.88;0.40;;;20.40;77.80;;;;;;5034023;28;20048;-73
2022/06/09 00:25:24;;;;;;;0.95;0.60;;;20.80;75.90;;;;;;5034285;28;20025;-74
2022/06/09 00:27:52;;;;;;;0.47;0.40;;;21.00;75.90;;;;;;5045283;28;20021;-73
2022/06/09 00:30:19;;;;;;;1.30;0.35;;;21.10;76.80;;;;;;5034018;28;20017;-73
2022/06/09 00:32:47;;;;;;;0.90;0.30;;;21.30;75.60;;;;;;5033133;28;20029;-71
2022/06/09 00:35:14;;;;;;;0.98;0.35;;;21.70;75.00;;;;;;5037101;28;20032;-73
2022/06/09 00:37:42;;;;;;;0.57;0.43;;;22.00;73.60;;;;;;5034829;28;20034;-74
2022/06/09 00:40:12;;;;;;;0.60;0.38;;;22.10;74.70;;;;;;5033701;28;20086;-75
2022/06/09 00:42:39;;;;;;;1.10;0.40;;;22.20;74.30;;;;;;5037556;28;20127;-73
2022/06/09 00:45:50;;;;;;;1.65;0.40;;;22.50;72.90;;;;;;5046091;28;20057;-74
2022/06/09 00:48:20;;;;;;;0.80;0.40;;;22.30;72.10;;;;;;5025617;28;20060;-74
2022/06/09 00:50:52;;;;;;;2.13;0.70;;;22.50;71.40;;;;;;5039238;28;20140;-73
2022/06/09 00:53:27;;;;;;;0.55;0.32;;;22.60;71.00;;;;;;5037494;28;20108;-73
2022/06/09 00:55:56;;;;;;;0.47;0.27;;;22.40;71.60;;;;;;5032347;28;20029;-73
2022/06/09 00:58:25;;;;;;;0.75;0.30;;;22.60;71.20;;;;;;5041116;28;20032;-74
2022/06/09 01:01:01;;;;;;;0.32;0.30;;;23.00;72.60;;;;;;5032283;28;20524;-74
2022/06/09 01:03:32;;;;;;;;;;;23.40;72.90;;;;;;5031292;28;20037;-74
2022/06/09 01:06:08;;;;;;;0.85;0.30;;;23.70;69.30;;;;;;5027709;28;19911;-75
2022/06/09 01:08:40;;;;;;;0.68;0.30;;;23.40;69.90;;;;;;5040449;28;20075;-74
2022/06/09 01:11:08;;;;;;;0.40;0.20;;;23.50;71.30;;;;;;5040724;28;20383;-75
2022/06/09 01:13:36;;;;;;;0.17;0.10;;;24.10;70.40;;;;;;5033246;28;20091;-75
2022/06/09 01:16:27;;;;;;;0.17;0.10;;;24.30;70.00;;;;;;5025469;28;20132;-72
2022/06/09 01:19:42;;;;;;;0.20;0.20;;;24.30;67.60;;;;;;5028519;28;20048;-72
2022/06/09 01:22:18;;;;;;;1.15;0.15;;;24.10;67.50;;;;;;5026596;28;20053;-72
2022/06/09 01:25:12;;;;;;;0.52;0.30;;;23.80;67.60;;;;;;5031033;28;20029;-72
2022/06/09 01:27:58;;;;;;;0.13;0.10;;;23.70;68.50;;;;;;5031183;28;20052;-72
2022/06/09 01:30:36;;;;;;;0.10;0.10;;;23.80;67.60;;;;;;5040793;28;20029;-73
2022/06/09 01:33:21;;;;;;;1.02;0.20;;;23.80;66.80;;;;;;5032824;28;20021;-73
2022/06/09 01:36:00;;;;;;;0.10;0.10;;;23.70;69.20;;;;;;5029480;28;20068;-72
2022/06/09 01:38:28;;;;;;;0.20;0.15;;;23.10;68.50;;;;;;5037638;28;20029;-72
2022/06/09 01:40:55;;;;;;;0.93;0.20;;;23.40;68.50;;;;;;5036104;28;20053;-76
2022/06/09 01:43:23;;;;;;;0.52;0.10;;;23.30;66.90;;;;;;5029445;28;20546;-73
2022/06/09 01:46:08;;;;;;;0.10;0.10;;;22.70;67.00;;;;;;5032627;28;20136;-73
2022/06/09 01:48:36;;;;;;;0.50;0.10;;;22.70;67.50;;;;;;5033471;28;20095;-74
2022/06/09 01:51:12;;;;;;;0.10;0.10;;;22.40;69.30;;;;;;5043740;28;20033;-72
2022/06/09 01:53:45;;;;;;;1.52;0.25;;;22.90;69.00;;;;;;5036636;28;20021;-74
2022/06/09 01:56:27;;;;;;;0.45;0.35;;;23.30;68.30;;;;;;5036008;28;20918;-74
2022/06/09 01:59:18;;;;;;;0.25;0.10;;;23.90;68.40;;;;;;5038771;28;20207;-73
2022/06/09 02:01:58;;;;;;;0.43;0.03;;;24.50;65.90;;;;;;5045163;28;20143;-74
2022/06/09 02:04:42;;;;;;;0.30;0.10;;;23.40;65.90;;;;;;5044956;28;20028;-73
2022/06/09 02:07:12;;;;;;;0.40;0.10;;;22.90;66.90;;;;;;5051481;28;20029;-79
2022/06/09 02:09:39;;;;;;;0.10;0.10;;;23.60;68.20;;;;;;5036948;28;20471;-71
2022/06/09 02:12:11;;;;;;;0.20;0.10;;;24.20;67.00;;;;;;5037696;28;20089;-74
2022/06/09 02:14:42;;;;;;;0.10;0.10;;;24.50;68.50;;;;;;5035282;28;20597;-74
2022/06/09 02:17:10;;;;;;;0.35;0.15;;;24.80;67.20;;;;;;5048537;28;20493;-74
2022/06/09 02:19:42;;;;;;;0.20;0.10;;;25.00;66.50;;;;;;5038765;28;20344;-73
2022/06/09 02:22:12;;;;;;;0.65;0.20;;;25.00;66.10;;;;;;5044042;28;20032;-72
2022/06/09 02:24:40;;;;;;;0.10;0.10;;;24.90;64.60;;;;;;5047068;28;20074;-74
2022/06/09 02:27:07;;;;;;;0.05;0.05;;;24.80;64.60;;;;;;5039582;28;20051;-73
2022/06/09 02:29:35;;;;;;;0.10;0.00;;;24.30;65.70;;;;;;5041406;28;20075;-76
2022/06/09 02:32:03;;;;;;;0.25;0.00;;;24.10;65.00;;;;;;5036973;28;20081;-75
2022/06/09 02:34:31;;;;;;;0.15;0.08;;;24.10;66.30;;;;;;5045470;28;20021;-74
2022/06/09 02:36:58;;;;;;;0.00;0.00;;;24.40;65.20;;;;;;5047492;28;20036;-75
2022/06/09 02:39:25;;;;;;;0.00;0.00;;;24.30;65.90;;;;;;5036225;28;20025;-74
2022/06/09 02:41:53;;;;;;;0.38;0.00;;;24.00;66.00;;;;;;5035773;28;20622;-75
2022/06/09 02:44:20;;;;;;;0.10;0.10;;;23.30;65.90;;;;;;5037031;28;20029;-75
2022/06/09 02:46:47;;;;;;;0.52;0.10;;;23.30;67.30;;;;;;5037614;28;20048;-76
2022/06/09 02:49:16;;;;;;;0.85;0.20;;;23.10;67.10;;;;;;5028285;28;20135;-75
2022/06/09 02:51:43;;;;;;;0.28;0.10;;;22.80;66.60;;;;;;5029722;28;20105;-75
2022/06/09 02:54:14;;;;;;;1.15;0.52;;;22.30;67.70;;;;;;5038397;28;20201;-75
2022/06/09 02:56:42;;;;;;;0.40;0.10;;;22.30;67.50;;;;;;5049694;28;20048;-75
2022/06/09 02:59:11;;;;;;;0.03;0.03;;;21.80;69.20;;;;;;5035919;28;20079;-80
2022/06/09 03:01:38;;;;;;;0.57;0.38;;;22.10;69.00;;;;;;5038681;28;20040;-80
2022/06/09 03:04:06;;;;;;;0.03;0.00;;;22.00;68.80;;;;;;5030774;28;20053;-79
2022/06/09 03:06:35;;;;;;;0.00;0.00;;;22.00;69.20;;;;;;5038360;28;20037;-78
2022/06/09 03:09:03;;;;;;;0.10;0.10;;;21.90;68.00;;;;;;5030964;28;20383;-76
2022/06/09 03:11:30;;;;;;;0.70;0.00;;;21.80;69.40;;;;;;5041916;28;20025;-75
2022/06/09 03:13:57;;;;;;;0.10;0.03;;;21.70;68.80;;;;;;5044620;28;20039;-78
2022/06/09 03:16:25;;;;;;;1.85;0.30;;;21.60;68.40;;;;;;5033813;28;20377;-75
2022/06/09 03:18:52;;;;;;;0.35;0.00;;;21.40;69.00;;;;;;5035705;28;20471;-76
2022/06/09 03:21:20;;;;;;;0.00;0.00;;;21.20;70.10;;;;;;5038743;28;20048;-76
2022/06/09 03:23:47;;;;;;;1.20;0.10;;;21.10;70.30;;;;;;5035148;28;20428;-75
2022/06/09 03:26:15;;;;;;;0.10;0.10;;;20.90;69.00;;;;;;5034784;28;20048;-76
2022/06/09 03:28:42;;;;;;;0.38;0.00;;;20.50;70.80;;;;;;5029750;28;20048;-76
2022/06/09 03:31:10;;;;;;;1.30;0.00;;;20.20;70.80;;;;;;5038001;28;20021;-77
2022/06/09 03:33:40;;;;;;;0.38;0.00;;;19.70;70.60;;;;;;5040007;28;20033;-75
2022/06/09 03:36:08;;;;;;;0.00;0.00;;;19.00;71.20;;;;;;5033021;28;20421;-76
2022/06/09 03:38:36;;;;;;;0.00;0.00;;;18.40;72.50;;;;;;5032190;28;20060;-76
2022/06/09 03:41:04;;;;;;;0.10;0.10;;;17.90;73.10;;;;;;5042377;28;20088;-76
2022/06/09 03:43:31;;;;;;;0.00;0.00;;;17.50;73.40;;;;;;5043713;28;20044;-76
2022/06/09 03:45:59;;;;;;;0.93;0.30;;;17.10;74.20;;;;;;5034343;28;20067;-73
2022/06/09 03:48:26;;;;;;;1.15;0.10;;;16.90;75.40;;;;;;5034158;28;20131;-75
2022/06/09 03:50:53;;;;;;;0.60;0.10;;;16.90;75.80;;;;;;5033150;28;20034;-76
2022/06/09 03:53:21;;;;;;;0.00;0.00;;;16.80;75.70;;;;;;5031953;28;20021;-75
2022/06/09 03:55:48;;;;;;;0.30;0.00;;;16.80;76.30;;;;;;5042918;28;20408;-75
2022/06/09 03:58:15;;;;;;;0.10;0.00;;;16.60;75.80;;;;;;5036590;28;20526;-75
2022/06/09 04:00:43;;;;;;;0.10;0.00;;;16.50;76.10;;;;;;5030108;28;20029;-76
2022/06/09 04:03:10;;;;;;;0.22;0.10;;;16.40;77.00;;;;;;5033906;28;20029;-79
2022/06/09 04:05:38;;;;;;;0.38;0.10;;;16.40;76.60;;;;;;5029076;28;20529;-76
2022/06/09 04:08:06;;;;;;;0.00;0.00;;;16.30;77.00;;;;;;5029716;28;20031;-75
2022/06/09 04:10:34;;;;;;;0.17;0.17;;;16.30;76.60;;;;;;5027473;28;20029;-75
2022/06/09 04:13:02;;;;;;;0.10;0.00;;;16.30;77.00;;;;;;5033887;28;20021;-74
2022/06/09 04:15:30;;;;;;;0.35;0.10;;;16.30;77.40;;;;;;5031858;28;20025;-75
2022/06/09 04:17:59;;;;;;;0.10;0.10;;;16.30;77.80;;;;;;5038398;28;20593;-76
2022/06/09 04:20:27;;;;;;;0.20;0.00;;;16.20;77.70;;;;;;5027977;28;20517;-77
2022/06/09 04:22:54;;;;;;;0.00;0.00;;;16.20;77.60;;;;;;5027571;28;20032;-78
2022/06/09 04:25:22;;;;;;;0.30;0.00;;;16.10;77.70;;;;;;5038959;28;20029;-74
2022/06/09 04:27:50;;;;;;;0.10;0.00;;;16.00;77.10;;;;;;5031910;28;20098;-76
2022/06/09 04:30:19;;;;;;;0.00;0.00;;;15.90;77.80;;;;;;5049882;28;20033;-76
2022/06/09 04:32:47;;;;;;;8.60;0.20;;;15.90;77.80;;;;;;5035568;28;20594;-79
2022/06/09 04:35:14;;;;;;;0.20;0.10;;;15.80;78.40;;;;;;5035997;28;20065;-75
2022/06/09 04:38:00;;;;;;;0.10;0.03;;;15.70;77.60;;;;;;5044756;28;20073;-75
2022/06/09 04:40:38;;;;;;;0.55;0.10;;;15.70;77.80;;;;;;5040051;28;20080;-76
2022/06/09 04:43:09;;;;;;;0.00;0.00;;;15.60;77.40;;;;;;5044782;28;20063;-77
2022/06/09 04:45:37;;;;;;;0.10;0.10;;;15.60;78.00;;;;;;5050162;28;20548;-77
2022/06/09 04:48:05;;;;;;;0.00;0.00;;;15.60;77.70;;;;;;5045590;28;20098;-75
2022/06/09 04:50:33;;;;;;;0.00;0.00;;;15.60;77.60;;;;;;5049575;28;20054;-78
2022/06/09 04:53:01;;;;;;;0.05;0.03;;;15.50;77.80;;;;;;5041658;28;20049;-78
2022/06/09 04:55:28;;;;;;;0.10;0.10;;;15.50;78.40;;;;;;5046551;28;20035;-77
2022/06/09 04:57:58;;;;;;;0.00;0.00;;;15.50;78.40;;;;;;5035633;28;20033;-77
2022/06/09 05:00:26;;;;;;;0.00;0.00;;;15.50;78.40;;;;;;5048454;28;20021;-76
2022/06/09 05:02:55;;;;;;;0.00;0.00;;;15.50;78.80;;;;;;5038940;28;20049;-78
2022/06/09 05:05:28;;;;;;;0.30;0.10;;;15.40;78.90;;;;;;5034412;28;20354;-77
2022/06/09 05:07:55;;;;;;;0.03;0.03;;;15.40;78.90;;;;;;5037211;28;20029;-76
2022/06/09 05:10:23;;;;;;;0.05;0.05;;;15.40;79.40;;;;;;5032102;28;20024;-76
2022/06/09 05:12:50;;;;;;;0.32;0.10;;;15.40;79.30;;;;;;5040705;28;20036;-77
2022/06/09 05:15:20;;;;;;;0.32;0.10;;;15.40;79.90;;;;;;5038071;28;20699;-75
2022/06/09 05:17:48;;;;;;;0.30;0.10;;;15.40;79.80;;;;;;5038709;28;20625;-75
2022/06/09 05:20:19;;;;;;;0.10;0.10;;;15.30;80.10;;;;;;5041421;28;20055;-75
2022/06/09 05:22:46;;;;;;;0.32;0.10;;;15.30;79.80;;;;;;5038260;28;20525;-75
2022/06/09 05:25:14;;;;;;;0.17;0.10;;;15.30;79.70;;;;;;5029582;28;20026;-74
2022/06/09 05:27:42;;;;;;;0.00;0.00;;;15.20;79.90;;;;;;5038802;28;20361;-74
2022/06/09 05:30:14;;;;;;;0.10;0.10;;;15.20;80.20;;;;;;5033918;28;20029;-74
2022/06/09 05:32:42;;;;;;;1.88;0.20;;;15.10;80.30;;;;;;5045212;28;20033;-75
2022/06/09 05:35:12;;;;;;;0.80;0.10;;;15.10;80.80;;;;;;5036570;28;20028;-74
2022/06/09 05:45:58;;;;;;;0.00;0.00;;;15.00;81.30;;;;;;5044810;28;20031;-74
2022/06/09 05:48:26;;;;;;;0.20;0.10;;;15.00;81.20;;;;;;5037851;28;20043;-78
2022/06/09 05:50:54;;;;;;;0.25;0.10;;;14.90;81.00;;;;;;5044034;28;20056;-77
2022/06/09 05:53:22;;;;;;;0.10;0.00;;;14.90;81.30;;;;;;5031831;28;20029;-75
2022/06/09 05:55:49;;;;;;;0.50;0.00;;;14.90;81.80;;;;;;5036243;28;20025;-75
2022/06/09 05:58:17;;;;;;;0.10;0.10;;;14.90;81.60;;;;;;5044392;28;20040;-75
2022/06/09 06:00:47;;;;;;;0.28;0.10;;;14.80;81.90;;;;;;5036875;28;20484;-76
2022/06/09 06:03:17;;;;;;;0.10;0.10;;;14.80;82.00;;;;;;5042927;28;20357;-76
2022/06/09 06:08:29;;;;;;;0.68;0.20;;;14.80;82.30;;;;;;5038364;28;20498;-76
2022/06/09 06:10:57;;;;;;;0.52;0.10;;;14.90;82.70;;;;;;5050425;28;20165;-75
2022/06/09 06:13:25;;;;;;;0.28;0.20;;;14.90;82.30;;;;;;5043023;28;20022;-75
2022/06/09 06:15:52;;;;;;;0.40;0.22;;;15.00;82.30;;;;;;5048614;28;20029;-75
2022/06/09 06:18:20;;;;;;;0.55;0.20;;;15.10;83.10;;;;;;5038005;28;20021;-77
2022/06/09 06:20:48;;;;;;;0.80;0.30;;;15.10;82.20;;;;;;5042300;28;20128;-76
2022/06/09 06:23:15;;;;;;;4.22;0.15;;;15.00;82.00;;;;;;5042459;28;20025;-77
2022/06/09 06:25:43;;;;;;;0.28;0.20;;;14.90;82.50;;;;;;5039710;28;20041;-76
2022/06/09 06:28:11;;;;;;;0.68;0.08;;;14.80;82.90;;;;;;5043181;28;20434;-77
2022/06/09 06:30:38;;;;;;;0.40;0.30;;;14.70;83.00;;;;;;5043435;28;20480;-77
2022/06/09 06:33:06;;;;;;;0.40;0.20;;;14.50;83.40;;;;;;5037143;28;20061;-78
2022/06/09 06:35:33;;;;;;;1.08;0.25;;;14.40;83.80;;;;;;5044372;28;20523;-76
2022/06/09 06:38:01;;;;;;;0.55;0.10;;;14.20;84.30;;;;;;5048544;28;20112;-77
2022/06/09 06:40:28;;;;;;;0.30;0.20;;;14.00;84.80;;;;;;5043040;28;20033;-78
2022/06/09 06:42:55;;;;;;;0.20;0.17;;;13.90;85.10;;;;;;5049634;28;20048;-76
2022/06/09 06:45:23;;;;;;;3.50;0.25;;;13.70;85.40;;;;;;5040411;28;20059;-76
2022/06/09 06:47:51;;;;;;;0.10;0.10;;;13.60;85.40;;;;;;5033659;28;20048;-79
2022/06/09 06:50:18;;;;;;;0.10;0.10;;;13.60;85.70;;;;;;5047198;28;20044;-78
2022/06/09 06:52:45;;;;;;;2.47;1.00;;;13.40;86.00;;;;;;5039811;28;20037;-80
2022/06/09 06:55:17;;;;;;;5.90;2.05;;;13.30;86.90;;;;;;5043082;28;20116;-83
2022/06/09 06:57:45;;;;;;;2.88;1.17;;;13.20;87.20;;;;;;5040554;28;20504;-81
2022/06/09 07:00:15;;;;;;;1.38;0.98;;;13.10;87.30;;;;;;5047699;28;20063;-79
2022/06/09 07:02:43;;;;;;;1.80;0.90;;;13.00;88.00;;;;;;5042884;28;20032;-80
2022/06/09 07:05:11;;;;;;;0.95;0.50;;;12.90;88.30;;;;;;5031273;28;20034;-79
2022/06/09 07:07:40;;;;;;;1.70;0.38;;;12.80;88.70;;;;;;5033973;28;20032;-81
2022/06/09 07:10:10;;;;;;;0.98;0.38;;;12.60;89.60;;;;;;5035279;28;20527;-80
2022/06/09 07:12:38;;;;;;;0.52;0.17;;;12.60;89.50;;;;;;5031251;28;20464;-79
2022/06/09 07:15:07;;;;;;;1.13;0.50;;;12.50;90.00;;;;;;5031395;28;20029;-78
2022/06/09 07:17:34;;;;;;;3.35;1.48;;;12.40;89.60;;;;;;5042755;28;20037;-79
2022/06/09 07:20:02;;;;;;;1.25;0.70;;;12.30;90.20;;;;;;5036161;28;20024;-81
2022/06/09 07:22:29;;;;;;;1.50;0.60;;;12.30;90.20;;;;;;5036530;28;20448;-79
2022/06/09 07:24:57;;;;;;;1.63;0.60;;;12.20;90.30;;;;;;5030905;28;20053;-81
2022/06/09 07:27:26;;;;;;;4.32;1.60;;;12.10;90.50;;;;;;5035600;28;20033;-79
2022/06/09 07:29:53;;;;;;;4.68;2.20;;;12.10;90.50;;;;;;5035062;28;20091;-81
2022/06/09 07:32:24;;;;;;;1.90;0.77;;;12.00;90.50;;;;;;5048362;28;20144;-83
2022/06/09 07:34:51;;;;;;;0.90;0.30;;;12.00;90.50;;;;;;5046535;28;20117;-79
2022/06/09 07:37:19;;;;;;;1.20;0.40;;;11.90;90.40;;;;;;5052364;28;20482;-80
2022/06/09 07:39:47;;;;;;;0.63;0.30;;;11.90;90.50;;;;;;5041335;28;20152;-79
2022/06/09 07:42:15;;;;;;;1.83;0.30;;;11.90;90.50;;;;;;5040680;28;20387;-80
2022/06/09 07:44:42;;;;;;;0.47;0.30;;;11.90;90.50;;;;;;5031834;28;20086;-79
2022/06/09 07:47:10;;;;;;;0.47;0.20;;;11.80;90.60;;;;;;5030239;28;20045;-78
2022/06/09 07:49:37;;;;;;;0.77;0.30;;;11.80;90.50;;;;;;5031697;28;20175;-79
2022/06/09 07:52:05;;;;;;;0.70;0.50;;;11.80;90.80;;;;;;5032429;28;20043;-79
2022/06/09 07:54:33;;;;;;;0.95;0.38;;;11.70;90.80;;;;;;5034787;28;20463;-79
2022/06/09 07:57:00;;;;;;;0.75;0.50;;;11.60;91.00;;;;;;5028095;28;20056;-78
2022/06/09 07:59:28;;;;;;;0.85;0.70;;;11.50;91.40;;;;;;5036641;28;20442;-79
2022/06/09 08:01:55;;;;;;;0.77;0.30;;;11.40;91.70;;;;;;5040551;28;20480;-82
2022/06/09 08:04:22;;;;;;;0.45;0.30;;;11.30;91.60;;;;;;5046918;28;20060;-81
2022/06/09 08:06:50;;;;;;;1.10;0.40;;;11.30;91.90;;;;;;5044186;28;20056;-82
2022/06/09 08:09:17;;;;;;;0.85;0.50;;;11.20;91.90;;;;;;5035175;28;20055;-83
2022/06/09 08:11:46;;;;;;;1.23;0.75;;;11.10;91.90;;;;;;5040224;28;20037;-81
2022/06/09 08:14:15;;;;;;;2.00;1.05;;;10.90;92.20;;;;;;5043538;28;20075;-79
2022/06/09 08:16:43;;;;;;;4.18;2.05;;;10.90;93.00;;;;;;5029430;28;20112;-81
2022/06/09 08:19:11;;;;;;;1.60;0.95;;;10.80;93.50;;;;;;5034480;28;20069;-82
2022/06/09 08:21:39;;;;;;;2.42;1.05;;;10.70;93.50;;;;;;5046492;28;20064;-83
2022/06/09 08:24:07;;;;;;;1.73;1.15;;;10.60;93.50;;;;;;5053498;28;20029;-81
2022/06/09 08:26:35;;;;;;;1.85;1.08;;;10.60;93.60;;;;;;5053793;28;20059;-83
2022/06/09 08:29:03;;;;;;;2.17;1.10;;;10.50;93.70;;;;;;5036778;28;20021;-82
2022/06/09 08:31:30;;;;;;;2.25;1.20;;;10.50;93.80;;;;;;5050112;28;20029;-82
2022/06/09 08:33:58;;;;;;;1.30;1.20;;;10.40;94.00;;;;;;5042217;28;20044;-82
2022/06/09 08:36:25;;;;;;;1.63;1.40;;;10.30;93.90;;;;;;5048814;28;20036;-84
2022/06/09 08:38:53;;;;;;;2.33;0.73;;;10.30;94.00;;;;;;5052719;28;20029;-83
2022/06/09 08:41:36;;;;;;;1.25;0.50;;;10.30;93.80;;;;;;5052588;28;20044;-84
2022/06/09 08:44:17;;;;;;;1.02;0.75;;;10.40;93.70;;;;;;5055638;28;20032;-83
2022/06/09 08:47:31;;;;;;;0.90;0.40;;;10.40;93.60;;;;;;5057055;28;20090;-84
2022/06/09 08:50:13;;;;;;;0.95;0.40;;;10.50;93.20;;;;;;5051027;28;20135;-82
2022/06/09 08:52:44;;;;;;;1.05;0.50;;;10.60;93.10;;;;;;5055570;28;20459;-83
2022/06/09 08:55:26;;;;;;;1.15;1.05;;;10.60;93.10;;;;;;5057508;28;20040;-82
2022/06/09 08:58:06;;;;;;;1.40;0.60;;;10.50;93.30;;;;;;5050398;28;20030;-83
2022/06/09 09:00:39;;;;;;;2.15;0.77;;;10.40;93.50;;;;;;5050875;28;20116;-83
2022/06/09 09:03:31;;;;;;;1.40;0.70;;;10.40;93.80;;;;;;5052438;28;20035;-82
2022/06/09 09:06:13;;;;;;;1.98;0.90;;;10.30;94.40;;;;;;5041739;28;20029;-83
2022/06/09 09:08:40;;;;;;;2.10;0.73;;;10.20;94.60;;;;;;5053513;28;20044;-82
2022/06/09 09:11:10;;;;;;;1.85;0.80;;;10.10;94.80;;;;;;5052719;28;20072;-82
2022/06/09 09:13:51;;;;;;;1.08;0.93;;;10.10;94.50;;;;;;5053939;28;20102;-82
2022/06/09 09:16:28;;;;;;;2.38;0.90;;;10.10;94.60;;;;;;5054249;28;20051;-82
2022/06/09 09:19:32;;;;;;;1.38;0.95;;;10.00;94.70;;;;;;5051570;28;20044;-82
2022/06/09 09:22:25;;;;;;;2.95;1.10;;;9.90;94.80;;;;;;5047401;28;20101;-82
2022/06/09 09:25:17;;;;;;;1.92;1.08;;;9.80;94.70;;;;;;5045285;28;20037;-82
2022/06/09 09:27:53;;;;;;;2.15;1.33;;;9.70;95.10;;;;;;5058306;28;20032;-83
2022/06/09 09:30:34;;;;;;;2.80;1.00;;;9.60;95.50;;;;;;5054887;28;20033;-82
2022/06/09 09:33:02;;;;;;;4.10;1.58;;;9.50;95.70;;;;;;5055413;28;20029;-82
2022/06/09 09:35:40;;;;;;;5.57;3.28;;;9.40;96.10;;;;;;5047500;28;20043;-82
2022/06/09 09:38:09;;;;;;;5.85;3.55;;;9.30;96.20;;;;;;5054500;28;20025;-82
2022/06/09 09:40:44;;;;;;;6.18;3.53;;;9.20;96.20;;;;;;5057348;28;20033;-82
2022/06/09 09:43:15;;;;;;;4.32;2.22;;;9.20;96.50;;;;;;5051764;28;20021;-82
2022/06/09 09:46:04;;;;;;;6.25;1.88;;;9.20;96.50;;;;;;5046742;28;20104;-83
2022/06/09 09:48:40;;;;;;;2.47;1.13;;;9.10;96.50;;;;;;5046777;28;20063;-83
2022/06/09 09:51:13;;;;;;;;;;;9.10;96.30;;;;;;5041863;28;20021;-82
2022/06/09 09:53:48;;;;;;;4.05;2.13;;;9.20;96.50;;;;;;5037802;28;19916;-82
2022/06/09 09:56:18;;;;;;;7.00;2.47;;;9.20;96.80;;;;;;5047381;28;20029;-81
2022/06/09 09:58:49;;;;;;;4.63;2.67;;;9.20;96.90;;;;;;5057619;28;20036;-82
2022/06/09 10:01:22;;;;;;;13.98;11.13;;;9.10;97.50;;;;;;5060430;28;20033;-82
2022/06/09 10:10:11;;;;;;;24.35;16.63;;;8.80;97.90;;;;;;5050224;28;20032;-82
2022/06/09 10:12:39;;;;;;;20.70;11.90;;;8.70;98.10;;;;;;5037542;28;20411;-82
2022/06/09 10:15:09;;;;;;;13.18;9.02;;;8.70;98.40;;;;;;5050031;28;20071;-83
2022/06/09 10:18:06;;;;;;;6.85;4.68;;;8.60;98.50;;;;;;5059180;28;20021;-82
2022/06/09 10:20:51;;;;;;;4.72;3.40;;;8.50;98.60;;;;;;5053647;28;20480;-81
2022/06/09 10:23:33;;;;;;;6.57;3.88;;;8.40;98.60;;;;;;5055251;28;20100;-82
2022/06/09 10:26:23;;;;;;;6.20;3.83;;;8.40;98.80;;;;;;5058099;28;20052;-81
2022/06/09 10:28:57;;;;;;;7.25;4.90;;;8.40;99.10;;;;;;5050847;28;20040;-83
2022/06/09 10:31:25;;;;;;;4.50;3.08;;;8.30;99.10;;;;;;5059544;28;20039;-84
2022/06/09 10:34:13;;;;;;;14.20;3.72;;;8.20;99.30;;;;;;5056449;28;20029;-82
2022/06/09 10:37:02;;;;;;;4.40;2.70;;;8.10;99.50;;;;;;5054084;28;20029;-83
2022/06/09 10:39:41;;;;;;;5.00;2.60;;;8.10;99.60;;;;;;5043341;28;20033;-83
2022/06/09 10:42:33;;;;;;;3.30;1.92;;;8.00;99.80;;;;;;5051669;28;20056;-84
2022/06/09 10:45:10;;;;;;;3.97;1.98;;;8.00;99.80;;;;;;5043856;28;20024;-83
2022/06/09 10:57:09;;;;;;;2.10;1.10;;;8.30;99.30;;;;;;5054247;28;20106;-81
2022/06/09 11:00:00;;;;;;;2.90;1.38;;;8.40;98.90;;;;;;5046397;28;20127;-82
2022/06/09 11:02:31;;;;;;;2.85;1.42;;;8.40;99.00;;;;;;5046221;28;20480;-80
2022/06/09 11:04:59;;;;;;;2.25;1.45;;;8.30;99.10;;;;;;5036728;28;20441;-81
2022/06/09 11:08:05;;;;;;;2.72;1.30;;;8.20;99.40;;;;;;5053575;28;20086;-82
2022/06/09 11:11:07;;;;;;;3.47;1.35;;;8.10;99.40;;;;;;5038378;28;20110;-81
2022/06/09 11:13:43;;;;;;;1.60;1.10;;;8.00;99.60;;;;;;5039459;28;20117;-82
2022/06/09 11:16:47;;;;;;;3.03;1.80;;;8.00;99.90;;;;;;5048327;28;20509;-82
2022/06/09 11:19:46;;;;;;;3.03;1.90;;;7.90;99.90;;;;;;5037248;28;20033;-81
2022/06/09 11:22:33;;;;;;;4.22;2.60;;;7.80;99.90;;;;;;5047118;28;20043;-81
2022/06/09 11:25:35;;;;;;;4.72;2.85;;;7.70;99.90;;;;;;5037359;28;20043;-80
2022/06/09 11:28:24;;;;;;;6.93;2.90;;;7.60;99.90;;;;;;5040748;28;20068;-80
2022/06/09 11:31:03;;;;;;;6.68;4.30;;;7.50;99.90;;;;;;5038485;28;20037;-82
2022/06/09 11:33:57;;;;;;;9.98;5.13;;;7.40;99.90;;;;;;5036857;28;20033;-80
2022/06/09 11:36:47;;;;;;;6.68;3.90;;;7.30;99.90;;;;;;5035003;28;20109;-81
2022/06/09 11:39:46;;;;;;;7.53;3.70;;;7.30;99.90;;;;;;5041025;28;20511;-80
2022/06/09 11:42:30;;;;;;;8.43;3.67;;;7.20;99.90;;;;;;5038182;28;20091;-79
2022/06/09 11:45:04;;;;;;;7.80;4.03;;;7.10;99.90;;;;;;5037506;28;20079;-81
2022/06/09 11:47:34;;;;;;;8.82;4.07;;;7.00;99.90;;;;;;5047111;28;20033;-81
2022/06/09 11:50:07;;;;;;;4.15;3.22;;;7.00;99.90;;;;;;5049787;28;20106;-80
2022/06/09 11:52:42;;;;;;;6.40;3.95;;;6.90;99.90;;;;;;5044668;28;20502;-76
2022/06/09 11:56:00;;;;;;;5.32;3.60;;;6.90;99.90;;;;;;5046426;28;20049;-75
2022/06/09 11:58:36;;;;;;;8.32;4.75;;;6.80;99.90;;;;;;5035328;28;20039;-78
2022/06/09 12:01:41;;;;;;;6.32;4.30;;;6.80;99.90;;;;;;5046823;28;20052;-77
2022/06/09 12:04:35;;;;;;;7.50;3.45;;;6.80;99.90;;;;;;5052881;28;20379;-77
2022/06/09 12:07:26;;;;;;;7.50;3.58;;;6.90;99.90;;;;;;5045750;28;20028;-78
2022/06/09 12:09:54;;;;;;;6.65;4.28;;;6.90;99.90;;;;;;5044108;28;20029;-77
2022/06/09 12:12:36;;;;;;;5.40;2.88;;;6.90;99.90;;;;;;5042179;28;20026;-79
2022/06/09 12:15:28;;;;;;;4.95;3.20;;;6.90;99.90;;;;;;5040661;28;20074;-78
2022/06/09 12:18:05;;;;;;;5.85;3.35;;;6.80;99.90;;;;;;5027637;28;20033;-79
2022/06/09 12:20:41;;;;;;;4.95;2.72;;;6.80;99.90;;;;;;5050098;28;20079;-77
2022/06/09 12:23:23;;;;;;;;;;;6.70;99.90;;;;;;5041456;28;20675;-74
2022/06/09 12:26:16;;;;;;;4.68;2.92;;;6.70;99.90;;;;;;5035790;28;19930;-76
2022/06/09 12:28:52;;;;;;;5.57;2.70;;;6.70;99.90;;;;;;5042395;28;20041;-74
2022/06/09 12:31:31;;;;;;;5.70;2.55;;;6.70;99.90;;;;;;5043685;28;20609;-74
2022/06/09 12:34:04;;;;;;;5.25;3.50;;;6.70;99.90;;;;;;5039575;28;20037;-74
2022/06/09 12:37:04;;;;;;;4.18;2.20;;;6.70;99.90;;;;;;5046278;28;20029;-73
2022/06/09 12:39:39;;;;;;;5.15;1.92;;;6.70;99.90;;;;;;5040302;28;20037;-74
2022/06/09 12:42:33;;;;;;;4.22;2.72;;;6.70;99.90;;;;;;5043925;28;20041;-74
2022/06/09 12:45:11;;;;;;;6.45;4.15;;;6.70;99.90;;;;;;5035556;28;20057;-74
2022/06/09 12:48:12;;;;;;;9.50;4.00;;;6.70;99.90;;;;;;5041387;28;20040;-74
2022/06/09 12:50:52;;;;;;;10.85;4.50;;;6.60;99.90;;;;;;5033156;28;20095;-73
2022/06/09 12:53:37;;;;;;;7.72;4.00;;;6.50;99.90;;;;;;5029465;28;20040;-73
2022/06/09 12:56:30;;;;;;;12.57;5.28;;;6.40;99.90;;;;;;5031277;28;20427;-73
2022/06/09 12:58:57;;;;;;;6.93;3.55;;;6.40;99.90;;;;;;5024128;28;20037;-73
2022/06/09 13:01:29;;;;;;;5.72;3.75;;;6.40;99.90;;;;;;5028943;28;20122;-73
2022/06/09 13:04:05;;;;;;;5.82;3.10;;;6.30;99.90;;;;;;5028450;28;20336;-72
2022/06/09 13:06:40;;;;;;;9.00;4.00;;;6.30;99.90;;;;;;5038261;28;20455;-74
2022/06/09 13:09:26;;;;;;;5.63;3.50;;;6.20;99.90;;;;;;5035075;28;20022;-73
2022/06/09 13:14:54;;;;;;;4.82;3.47;;;6.10;99.90;;;;;;5030223;28;20075;-75
2022/06/09 13:17:29;;;;;;;4.63;3.17;;;6.10;99.90;;;;;;5035333;28;20045;-74
2022/06/09 13:20:07;;;;;;;5.10;3.60;;;6.10;99.90;;;;;;5037341;28;20128;-73
2022/06/09 13:22:34;;;;;;;8.43;3.70;;;6.00;99.90;;;;;;5041291;28;20488;-75
2022/06/09 13:25:04;;;;;;;3.20;2.80;;;6.10;99.90;;;;;;5032545;28;20033;-73
2022/06/09 13:27:33;;;;;;;2.70;1.58;;;6.10;99.90;;;;;;5034384;28;20033;-73
2022/06/09 13:30:28;;;;;;;3.03;1.70;;;6.20;99.90;;;;;;5035868;28;20091;-74
2022/06/09 13:32:56;;;;;;;5.45;3.92;;;6.30;99.90;;;;;;5030947;28;20387;-74
2022/06/09 13:35:42;;;;;;;10.95;5.97;;;6.30;99.90;;;;;;5026800;28;20039;-72
2022/06/09 13:38:24;;;;;;;9.25;6.28;;;6.20;99.90;;;;;;5038930;28;20025;-72
2022/06/09 13:40:59;;;;;;;9.80;6.05;;;6.00;99.90;;;;;;5039484;28;20040;-74
2022/06/09 13:43:36;;;;;;;10.35;5.70;;;5.90;99.90;;;;;;5035769;28;20379;-72
2022/06/09 13:46:16;;;;;;;12.40;5.40;;;5.80;99.90;;;;;;5037521;28;20411;-73
2022/06/09 13:48:58;;;;;;;9.52;5.38;;;5.80;99.90;;;;;;5029550;28;20507;-72
2022/06/09 13:51:55;;;;;;;7.20;5.13;;;5.70;99.90;;;;;;5043349;28;20033;-73
2022/06/09 13:54:41;;;;;;;;;;;5.70;99.90;;;;;;5038858;28;20029;-72